EFSI/SJY METAR and TAF weather

Enter ICAO airport designator
Station Type Date Time Source
EFSI METAR 2020/12/01 21:50 UTC NOAA

EFSI 012150Z AUTO 16001KT 0600 FZFG SKC M06/M07 Q1023


Station Type Date Time Source
EFSI Decoded METAR 2020/12/01 21:50 UTC NOAA

Seinajoki-Ilmajok, Finland (EFSI) 62-41-37N 022-49-55E
Dec 01, 2020 - 04:50 PM EST / 2020.12.01 2150 UTC
Wind: from the SSE (160 degrees) at 1 MPH (1 KT):0
Visibility: less than 1 mile:0
Sky conditions: clear
Weather: freezing fog
Temperature: 21 F (-6 C)
Dew Point: 19 F (-7 C)
Relative Humidity: 92%
Pressure (altimeter): 30.21 in. Hg (1023 hPa)
ob: EFSI 012150Z AUTO 16001KT 0600 FZFG SKC M06/M07 Q1023
cycle: 22

Station Type Date Time Source
EFSI TAF 2012/03/06 09:42 UTC NOAA

TAF EFSI 060830Z 0609/0621 12003KT CAVOK

Example: see airport list